createdAt,value
2018-10-17T00:01:46.759Z,90.86
2018-10-17T00:04:14.324Z,90.07
2018-10-17T00:06:41.917Z,89.44
2018-10-17T00:09:10.495Z,89.54
2018-10-17T00:11:38.146Z,89.38
2018-10-17T00:14:06.069Z,89.07
2018-10-17T00:16:33.668Z,88.97
2018-10-17T00:19:01.253Z,88.21
2018-10-17T00:21:28.895Z,87.91
2018-10-17T00:23:56.479Z,88.69
2018-10-17T00:26:24.102Z,90.67
2018-10-17T00:28:51.685Z,91.06
2018-10-17T00:31:19.658Z,90.71
2018-10-17T00:33:47.148Z,89.61
2018-10-17T00:36:14.671Z,90.40
2018-10-17T00:38:42.239Z,90.98
2018-10-17T00:41:09.778Z,90.56
2018-10-17T00:43:37.231Z,90.74
2018-10-17T00:46:05.195Z,91.14
2018-10-17T00:48:32.745Z,90.01
2018-10-17T00:51:00.855Z,90.05
2018-10-17T00:53:28.537Z,89.70
2018-10-17T00:55:56.142Z,88.30
2018-10-17T00:58:23.746Z,89.53
2018-10-17T01:00:51.316Z,90.11
2018-10-17T01:03:18.846Z,89.80
2018-10-17T01:05:46.422Z,89.61
2018-10-17T01:08:13.947Z,89.23
2018-10-17T01:10:41.496Z,88.58
2018-10-17T01:13:09.204Z,88.35
2018-10-17T01:15:36.686Z,89.59
2018-10-17T01:18:04.268Z,93.82
2018-10-17T01:20:31.898Z,94.36
2018-10-17T01:22:59.510Z,93.00
2018-10-17T01:25:27.198Z,92.58
2018-10-17T01:27:54.854Z,90.98
2018-10-17T01:30:22.469Z,90.79
2018-10-17T01:32:50.138Z,90.25
2018-10-17T01:35:17.821Z,89.55
2018-10-17T01:37:45.352Z,89.29
2018-10-17T01:40:13.129Z,88.45
2018-10-17T01:42:41.342Z,88.84
2018-10-17T01:45:09.554Z,88.82
2018-10-17T01:47:37.152Z,89.36
2018-10-17T01:50:05.422Z,89.48
2018-10-17T01:52:33.042Z,89.43
2018-10-17T01:55:00.625Z,88.86
2018-10-17T01:57:28.393Z,88.41
2018-10-17T01:59:56.065Z,88.74
2018-10-17T02:02:23.758Z,89.73
2018-10-17T02:04:51.417Z,88.70
2018-10-17T02:07:19.035Z,89.92
2018-10-17T02:09:46.645Z,89.46
2018-10-17T02:12:14.234Z,88.69
2018-10-17T02:14:41.924Z,88.72
2018-10-17T02:17:09.553Z,88.78
2018-10-17T02:19:37.327Z,90.47
2018-10-17T02:22:04.969Z,89.62
2018-10-17T02:24:32.636Z,89.76
2018-10-17T02:27:00.316Z,89.70
2018-10-17T02:29:28.351Z,88.79
2018-10-17T02:31:56.230Z,89.28
2018-10-17T02:34:23.824Z,88.65
2018-10-17T02:36:51.559Z,89.72
2018-10-17T02:39:19.129Z,89.75
2018-10-17T02:41:46.869Z,89.80
2018-10-17T02:44:14.551Z,89.67
2018-10-17T02:46:42.179Z,90.40
2018-10-17T02:49:09.893Z,90.56
2018-10-17T02:51:37.414Z,90.00
2018-10-17T02:54:06.124Z,88.87
2018-10-17T02:56:33.754Z,89.20
2018-10-17T02:59:01.576Z,89.44
2018-10-17T03:01:29.082Z,89.93
2018-10-17T03:03:57.123Z,89.78
2018-10-17T03:06:24.857Z,90.49
2018-10-17T03:08:52.629Z,89.87
2018-10-17T03:11:20.348Z,90.18
2018-10-17T03:13:48.035Z,89.29
2018-10-17T03:16:15.747Z,88.68
2018-10-17T03:18:43.345Z,88.15
2018-10-17T03:21:10.979Z,88.14
2018-10-17T03:23:38.661Z,91.09
2018-10-17T03:26:06.320Z,91.23
2018-10-17T03:28:33.999Z,90.78
2018-10-17T03:31:01.675Z,91.22
2018-10-17T03:33:29.591Z,92.00
2018-10-17T03:35:57.163Z,90.63
2018-10-17T03:38:24.798Z,89.55
2018-10-17T03:40:52.552Z,89.47
2018-10-17T03:43:20.204Z,89.18
2018-10-17T03:45:47.813Z,89.27
2018-10-17T03:48:15.894Z,90.39
2018-10-17T03:50:43.476Z,89.74
2018-10-17T03:53:11.050Z,89.91
2018-10-17T03:55:38.634Z,91.58
2018-10-17T03:58:06.281Z,93.34
2018-10-17T04:00:34.196Z,92.68
2018-10-17T04:03:01.913Z,92.27
2018-10-17T04:05:29.479Z,91.90
2018-10-17T04:07:57.048Z,91.13
2018-10-17T04:10:24.646Z,90.92
2018-10-17T04:12:52.205Z,92.26
2018-10-17T04:15:19.718Z,91.35
2018-10-17T04:17:47.303Z,92.57
2018-10-17T04:20:14.865Z,92.48
2018-10-17T04:22:51.125Z,91.35
2018-10-17T04:25:18.785Z,89.39
2018-10-17T04:27:46.240Z,89.53
2018-10-17T04:30:13.770Z,89.81
2018-10-17T04:32:41.240Z,88.54
2018-10-17T04:35:08.754Z,87.83
2018-10-17T04:37:37.009Z,87.76
2018-10-17T04:40:04.779Z,87.88
2018-10-17T04:42:32.283Z,88.25
2018-10-17T04:44:59.759Z,88.08
2018-10-17T04:47:27.498Z,88.80
2018-10-17T04:49:54.986Z,89.64
2018-10-17T04:52:22.519Z,90.58
2018-10-17T04:54:50.019Z,90.06
2018-10-17T04:57:17.479Z,90.49
2018-10-17T04:59:45.146Z,91.18
2018-10-17T05:02:12.634Z,91.87
2018-10-17T05:04:40.226Z,91.52
2018-10-17T05:07:08.392Z,90.87
2018-10-17T05:09:42.724Z,90.79
2018-10-17T05:12:10.322Z,90.01
2018-10-17T05:14:37.966Z,89.99
2018-10-17T05:17:05.673Z,89.62
2018-10-17T05:19:33.164Z,90.54
2018-10-17T05:22:00.678Z,91.82
2018-10-17T05:24:28.186Z,90.87
2018-10-17T05:26:55.739Z,90.56
2018-10-17T05:29:29.939Z,89.61
2018-10-17T05:31:57.394Z,90.23
2018-10-17T05:34:25.281Z,90.40
2018-10-17T05:36:52.805Z,90.84
2018-10-17T05:39:20.252Z,91.58
2018-10-17T05:41:47.732Z,92.80
2018-10-17T05:44:15.336Z,92.65
2018-10-17T05:46:42.852Z,93.29
2018-10-17T05:49:10.330Z,92.42
2018-10-17T05:51:37.902Z,92.14
2018-10-17T05:54:05.474Z,92.31
2018-10-17T05:56:32.957Z,91.01
2018-10-17T05:59:00.478Z,88.88
2018-10-17T06:01:28.142Z,87.30
2018-10-17T06:03:55.554Z,87.66
2018-10-17T06:06:23.034Z,88.56
2018-10-17T06:08:50.650Z,89.89
2018-10-17T06:11:18.168Z,91.75
2018-10-17T06:13:45.673Z,91.09
2018-10-17T06:16:13.185Z,92.04
2018-10-17T06:18:40.731Z,91.48
2018-10-17T06:21:08.201Z,91.27
2018-10-17T06:23:35.739Z,90.91
2018-10-17T06:26:03.218Z,90.94
2018-10-17T06:28:30.943Z,90.72
2018-10-17T06:30:58.450Z,89.90
2018-10-17T06:33:25.992Z,89.94
2018-10-17T06:35:53.432Z,90.19
2018-10-17T06:38:20.958Z,89.49
2018-10-17T06:40:48.402Z,88.69
2018-10-17T06:43:15.987Z,88.79
2018-10-17T06:45:43.449Z,88.57
2018-10-17T06:48:10.994Z,87.82
2018-10-17T06:50:38.492Z,88.38
2018-10-17T06:53:06.049Z,88.65
2018-10-17T06:55:33.542Z,88.65
2018-10-17T06:58:01.063Z,89.60
2018-10-17T07:00:28.545Z,90.87
2018-10-17T07:02:56.016Z,92.24
2018-10-17T07:05:23.613Z,93.98
2018-10-17T07:07:51.199Z,93.23
2018-10-17T07:10:18.644Z,95.56
2018-10-17T07:12:46.086Z,94.48
2018-10-17T07:15:13.626Z,95.40
2018-10-17T07:17:41.143Z,92.91
2018-10-17T07:20:09.086Z,92.05
2018-10-17T07:22:36.557Z,92.77
2018-10-17T07:25:05.762Z,93.26
2018-10-17T07:27:38.521Z,94.31
2018-10-17T07:30:07.553Z,93.90
2018-10-17T07:32:35.112Z,94.13
2018-10-17T07:35:02.792Z,93.72
2018-10-17T07:37:30.288Z,93.23
2018-10-17T07:39:57.736Z,93.09
2018-10-17T07:42:25.220Z,93.04
2018-10-17T07:44:52.642Z,93.82
2018-10-17T07:47:20.255Z,93.94
2018-10-17T07:49:47.731Z,93.43
2018-10-17T07:52:15.136Z,94.42
2018-10-17T07:54:42.684Z,93.64
2018-10-17T07:57:10.210Z,94.75
2018-10-17T07:59:37.663Z,95.54
2018-10-17T08:02:05.199Z,96.89
2018-10-17T08:04:32.704Z,96.39
2018-10-17T08:07:00.226Z,96.17
2018-10-17T08:09:27.651Z,95.88
2018-10-17T08:11:55.929Z,95.81
2018-10-17T08:14:23.517Z,94.52
2018-10-17T08:16:51.121Z,94.11
2018-10-17T08:19:18.530Z,93.82
2018-10-17T08:21:45.998Z,92.64
2018-10-17T08:24:13.569Z,91.32
2018-10-17T08:26:40.929Z,91.52
2018-10-17T08:29:08.369Z,90.67
2018-10-17T08:31:35.809Z,91.11
2018-10-17T08:34:03.321Z,90.86
2018-10-17T08:36:31.009Z,89.96
2018-10-17T08:38:58.264Z,89.80
2018-10-17T08:41:25.724Z,89.42
2018-10-17T08:43:53.215Z,89.26
2018-10-17T08:46:20.668Z,88.10
2018-10-17T08:48:48.080Z,87.37
2018-10-17T08:51:15.516Z,86.63
2018-10-17T08:53:42.975Z,86.71
2018-10-17T08:56:10.541Z,86.32
2018-10-17T08:58:37.861Z,85.40
2018-10-17T09:01:05.442Z,85.39
2018-10-17T09:03:32.862Z,85.00
2018-10-17T09:06:00.268Z,85.19
2018-10-17T09:08:27.807Z,85.21
2018-10-17T09:10:55.214Z,85.21
2018-10-17T09:13:22.724Z,84.60
2018-10-17T09:15:50.186Z,84.58
2018-10-17T09:18:17.832Z,83.81
2018-10-17T09:20:45.416Z,83.48
2018-10-17T09:23:12.779Z,82.72
2018-10-17T09:25:40.501Z,82.13
2018-10-17T09:28:08.017Z,82.37
2018-10-17T09:30:35.451Z,80.26
2018-10-17T09:33:02.971Z,79.87
2018-10-17T09:35:30.524Z,80.50
2018-10-17T09:37:58.212Z,80.25
2018-10-17T09:40:25.771Z,79.38
2018-10-17T09:42:53.231Z,78.66
2018-10-17T09:45:20.762Z,78.47
2018-10-17T09:47:48.352Z,78.32
2018-10-17T09:50:15.824Z,78.13
2018-10-17T09:52:43.264Z,76.83
2018-10-17T09:55:10.664Z,76.66
2018-10-17T09:57:38.090Z,76.42
2018-10-17T10:00:11.706Z,75.81
2018-10-17T10:02:39.088Z,76.12
2018-10-17T10:05:06.526Z,75.28
2018-10-17T10:07:34.066Z,74.40
2018-10-17T10:10:01.537Z,72.83
2018-10-17T10:12:28.972Z,72.79
2018-10-17T10:14:56.540Z,73.60
2018-10-17T10:17:24.088Z,72.60
2018-10-17T10:19:51.429Z,71.79
2018-10-17T10:22:18.881Z,71.27
2018-10-17T10:24:46.465Z,70.72
2018-10-17T10:27:13.880Z,71.73
2018-10-17T10:29:41.391Z,71.99
2018-10-17T10:32:09.959Z,71.38
2018-10-17T10:34:37.354Z,69.97
2018-10-17T10:37:05.029Z,70.68
2018-10-17T10:39:32.447Z,70.47
2018-10-17T10:41:59.938Z,71.74
2018-10-17T10:44:27.344Z,70.50
2018-10-17T10:46:54.886Z,68.33
2018-10-17T10:49:22.334Z,67.38
2018-10-17T10:51:49.826Z,67.56
2018-10-17T10:54:17.353Z,68.05
2018-10-17T10:56:44.763Z,66.34
2018-10-17T10:59:12.355Z,66.15
2018-10-17T11:01:39.739Z,65.41
2018-10-17T11:04:07.257Z,64.61
2018-10-17T11:06:34.779Z,64.87
2018-10-17T11:09:02.189Z,65.02
2018-10-17T11:11:29.630Z,64.68
2018-10-17T11:13:57.126Z,65.89
2018-10-17T11:16:24.595Z,66.23
2018-10-17T11:18:52.049Z,64.78
2018-10-17T11:21:19.437Z,65.56
2018-10-17T11:23:46.837Z,64.87
2018-10-17T11:26:14.230Z,64.56
2018-10-17T11:28:41.649Z,63.42
2018-10-17T11:31:09.066Z,61.82
2018-10-17T11:33:36.507Z,61.96
2018-10-17T11:36:03.982Z,62.49
2018-10-17T11:38:31.383Z,62.42
2018-10-17T11:40:58.826Z,62.38
2018-10-17T11:43:26.224Z,61.99
2018-10-17T11:45:53.771Z,60.61
2018-10-17T11:48:21.423Z,60.40
2018-10-17T11:50:48.935Z,57.93
2018-10-17T11:53:16.500Z,57.66
2018-10-17T11:55:43.880Z,57.55
2018-10-17T11:58:11.445Z,57.97
2018-10-17T12:00:38.828Z,58.44
2018-10-17T12:03:06.331Z,57.10
2018-10-17T12:05:34.217Z,55.00
2018-10-17T12:08:01.395Z,54.60
2018-10-17T12:10:28.852Z,52.44
2018-10-17T12:12:56.379Z,52.57
2018-10-17T12:15:23.856Z,51.97
2018-10-17T12:17:51.415Z,51.10
2018-10-17T12:20:18.850Z,52.00
2018-10-17T12:22:46.221Z,51.82
2018-10-17T12:25:14.113Z,52.64
2018-10-17T12:27:41.633Z,51.43
2018-10-17T12:30:11.491Z,53.22
2018-10-17T12:32:38.929Z,52.96
2018-10-17T12:35:06.768Z,52.90
2018-10-17T12:37:35.209Z,50.64
2018-10-17T12:40:02.881Z,49.64
2018-10-17T12:42:30.344Z,48.24
2018-10-17T12:44:57.887Z,50.04
2018-10-17T12:47:25.287Z,47.96
2018-10-17T12:49:53.016Z,46.03
2018-10-17T12:52:20.433Z,46.98
2018-10-17T12:54:47.948Z,47.39
2018-10-17T12:57:15.463Z,46.79
2018-10-17T12:59:43.947Z,44.26
2018-10-17T13:02:11.666Z,43.66
2018-10-17T13:04:39.599Z,44.48
2018-10-17T13:07:08.237Z,43.63
2018-10-17T13:09:35.936Z,43.92
2018-10-17T13:12:03.632Z,43.71
2018-10-17T13:14:32.157Z,44.50
2018-10-17T13:16:59.970Z,42.79
2018-10-17T13:19:27.658Z,43.34
2018-10-17T13:21:55.129Z,43.18
2018-10-17T13:24:22.698Z,42.58
2018-10-17T13:26:50.512Z,40.16
2018-10-17T13:29:18.098Z,40.63
2018-10-17T13:31:45.613Z,41.08
2018-10-17T13:34:13.563Z,44.64
2018-10-17T13:36:41.163Z,44.10
2018-10-17T13:39:11.257Z,42.64
2018-10-17T13:41:39.341Z,42.11
2018-10-17T13:44:07.706Z,41.35
2018-10-17T13:46:35.315Z,44.09
2018-10-17T13:49:03.089Z,44.16
2018-10-17T13:51:30.648Z,43.91
2018-10-17T13:53:58.356Z,42.75
2018-10-17T13:56:25.937Z,42.14
2018-10-17T13:58:53.447Z,41.90
2018-10-17T14:01:21.222Z,42.22
2018-10-17T14:03:48.857Z,41.83
2018-10-17T14:06:16.937Z,41.08
2018-10-17T14:08:44.815Z,40.12
2018-10-17T14:11:12.426Z,40.31
2018-10-17T14:13:40.393Z,38.65
2018-10-17T14:16:09.324Z,39.72
2018-10-17T14:18:37.079Z,38.17
2018-10-17T14:21:04.920Z,38.79
2018-10-17T14:23:32.665Z,37.81
2018-10-17T14:26:00.464Z,39.65
2018-10-17T14:28:28.164Z,38.95
2018-10-17T14:30:56.010Z,40.64
2018-10-17T14:33:23.882Z,40.22
2018-10-17T14:35:51.637Z,40.98
2018-10-17T14:38:19.298Z,41.99
2018-10-17T14:40:47.695Z,41.52
2018-10-17T14:43:15.798Z,41.55
2018-10-17T14:45:43.555Z,41.17
2018-10-17T14:48:11.426Z,43.81
2018-10-17T14:50:39.155Z,42.74
2018-10-17T14:53:09.441Z,41.56
2018-10-17T14:55:38.255Z,40.46
2018-10-17T14:58:06.454Z,39.02
2018-10-17T15:00:34.374Z,39.69
2018-10-17T15:03:02.345Z,40.93
2018-10-17T15:05:30.518Z,42.58
2018-10-17T15:07:59.317Z,43.23
2018-10-17T15:10:31.417Z,44.99
2018-10-17T15:12:59.286Z,45.84
2018-10-17T15:15:28.536Z,47.10
2018-10-17T15:17:56.786Z,48.03
2018-10-17T15:20:24.690Z,48.93
2018-10-17T15:22:53.620Z,49.25
2018-10-17T15:25:21.495Z,50.87
2018-10-17T15:27:49.317Z,51.80
2018-10-17T15:30:17.616Z,52.70
2018-10-17T15:32:45.720Z,53.84
2018-10-17T15:35:13.465Z,54.27
2018-10-17T15:37:41.462Z,54.91
2018-10-17T15:40:09.280Z,56.30
2018-10-17T15:42:37.094Z,57.43
2018-10-17T15:45:06.501Z,57.45
2018-10-17T15:47:34.508Z,58.61
2018-10-17T15:50:02.291Z,59.14
2018-10-17T15:52:30.101Z,58.34
2018-10-17T15:54:57.807Z,58.77
2018-10-17T15:57:25.543Z,59.26
2018-10-17T16:02:59.455Z,61.37
2018-10-17T16:05:27.188Z,62.31
2018-10-17T16:07:54.777Z,62.93
2018-10-17T16:10:22.140Z,62.84
2018-10-17T16:12:49.541Z,64.08
2018-10-17T16:15:16.952Z,63.82
2018-10-17T16:17:44.321Z,64.37
2018-10-17T16:20:12.524Z,65.44
2018-10-17T16:22:40.134Z,66.13
2018-10-17T16:25:08.156Z,65.76
2018-10-17T16:27:35.582Z,66.79
2018-10-17T16:30:03.417Z,68.08
2018-10-17T16:32:34.182Z,67.83
2018-10-17T16:35:02.350Z,68.54
2018-10-17T16:50:24.373Z,69.85
2018-10-17T16:52:52.024Z,72.69
2018-10-17T16:55:19.494Z,73.13
2018-10-17T16:57:46.949Z,73.33
2018-10-17T17:00:14.443Z,73.43
2018-10-17T17:02:41.794Z,73.69
2018-10-17T17:05:11.555Z,73.54
2018-10-17T17:07:39.257Z,74.38
2018-10-17T17:10:07.194Z,73.94
2018-10-17T17:12:34.594Z,74.76
2018-10-17T17:15:02.261Z,75.00
2018-10-17T17:17:29.658Z,75.22
2018-10-17T17:19:57.320Z,76.35
2018-10-17T17:22:24.755Z,77.13
2018-10-17T17:24:52.166Z,77.02
2018-10-17T17:27:20.029Z,77.40
2018-10-17T17:29:47.460Z,78.14
2018-10-17T17:32:14.788Z,78.56
2018-10-17T17:34:42.729Z,79.62
2018-10-17T17:37:10.142Z,80.45
2018-10-17T17:39:37.621Z,80.39
2018-10-17T17:42:05.139Z,80.34
2018-10-17T17:44:32.635Z,80.08
2018-10-17T17:46:59.988Z,80.20
2018-10-17T17:49:27.488Z,81.26
2018-10-17T17:51:55.087Z,81.28
2018-10-17T17:54:22.606Z,81.46
2018-10-17T17:56:49.990Z,84.40
2018-10-17T17:59:17.485Z,84.39
2018-10-17T18:01:44.971Z,83.41
2018-10-17T18:04:12.398Z,82.16
2018-10-17T18:06:39.928Z,81.92
2018-10-17T18:09:08.754Z,81.51
2018-10-17T18:11:36.238Z,81.15
2018-10-17T18:14:03.973Z,81.44
2018-10-17T18:16:31.406Z,81.84
2018-10-17T18:18:58.941Z,82.19
2018-10-17T18:21:31.907Z,81.63
2018-10-17T18:23:59.396Z,81.58
2018-10-17T18:26:26.879Z,83.09
2018-10-17T18:28:54.407Z,83.92
2018-10-17T18:31:21.934Z,85.58
2018-10-17T18:33:49.470Z,86.15
2018-10-17T18:36:17.031Z,86.19
2018-10-17T18:38:44.561Z,86.65
2018-10-17T18:41:12.073Z,86.50
2018-10-17T18:43:39.654Z,86.62
2018-10-17T18:46:07.494Z,85.43
2018-10-17T18:48:35.040Z,85.56
2018-10-17T18:51:02.570Z,85.80
2018-10-17T18:53:30.043Z,85.48
2018-10-17T18:55:57.623Z,85.05
2018-10-17T18:58:25.244Z,84.42
2018-10-17T19:00:52.687Z,85.03
2018-10-17T19:03:20.301Z,85.03
2018-10-17T19:05:47.788Z,84.75
2018-10-17T19:08:15.377Z,85.71
2018-10-17T19:10:43.137Z,86.82
2018-10-17T19:13:10.719Z,88.10
2018-10-17T19:15:38.357Z,87.49
2018-10-17T19:18:06.007Z,87.35
2018-10-17T19:20:33.780Z,88.20
2018-10-17T19:23:01.441Z,87.78
2018-10-17T19:25:28.838Z,87.44
2018-10-17T19:27:56.417Z,88.33
2018-10-17T19:30:24.509Z,88.25
2018-10-17T19:32:54.211Z,87.83
2018-10-17T19:35:22.312Z,89.14
2018-10-17T19:37:50.373Z,88.11
2018-10-17T19:40:18.226Z,87.91
2018-10-17T19:42:46.427Z,87.58
2018-10-17T19:45:14.509Z,86.87
2018-10-17T19:47:42.596Z,86.57
2018-10-17T19:50:10.597Z,86.00
2018-10-17T19:52:38.347Z,86.52
2018-10-17T19:55:07.970Z,87.10
2018-10-17T19:57:35.777Z,88.14
2018-10-17T20:00:04.349Z,88.33
2018-10-17T20:02:33.615Z,87.73
2018-10-17T20:05:01.235Z,88.43
2018-10-17T20:07:30.005Z,88.03
2018-10-17T20:09:57.807Z,87.96
2018-10-17T20:12:26.203Z,89.13
2018-10-17T20:14:54.122Z,90.57
2018-10-17T20:17:22.488Z,90.06
2018-10-17T20:19:50.399Z,89.55
2018-10-17T20:22:18.816Z,89.48
2018-10-17T20:24:46.860Z,89.59
2018-10-17T20:27:22.599Z,88.63
2018-10-17T20:29:50.368Z,87.89
2018-10-17T20:32:18.036Z,87.87
2018-10-17T20:34:46.023Z,88.21
2018-10-17T20:37:13.375Z,88.05
2018-10-17T20:39:40.702Z,87.78
2018-10-17T20:42:08.105Z,88.38
2018-10-17T20:44:35.610Z,88.39
2018-10-17T20:47:08.552Z,87.69
2018-10-17T20:49:37.223Z,87.99
2018-10-17T20:52:04.634Z,88.16
2018-10-17T20:54:32.123Z,90.19
2018-10-17T20:56:59.503Z,92.79
2018-10-17T20:59:26.902Z,93.42
2018-10-17T21:01:54.389Z,91.66
2018-10-17T21:04:21.776Z,91.72
2018-10-17T21:06:49.211Z,90.71
2018-10-17T21:09:16.591Z,90.02
2018-10-17T21:11:44.018Z,90.28
2018-10-17T21:14:11.700Z,88.79
2018-10-17T21:16:40.033Z,88.38
2018-10-17T21:19:07.766Z,89.42
2018-10-17T21:21:35.155Z,89.32
2018-10-17T21:24:02.603Z,89.53
2018-10-17T21:26:30.053Z,88.90
2018-10-17T21:28:57.381Z,88.39
2018-10-17T21:31:24.768Z,90.09
2018-10-17T21:33:52.055Z,90.04
2018-10-17T21:36:19.706Z,91.65
2018-10-17T21:38:47.132Z,91.25
2018-10-17T21:41:14.517Z,90.40
2018-10-17T21:43:41.983Z,88.71
2018-10-17T21:46:09.362Z,88.66
2018-10-17T21:48:36.737Z,88.22
2018-10-17T21:51:04.392Z,88.95
2018-10-17T21:53:31.774Z,89.26
2018-10-17T21:55:59.157Z,89.19
2018-10-17T21:58:26.517Z,89.15
2018-10-17T22:00:53.814Z,90.67
2018-10-17T22:03:21.191Z,89.76
2018-10-17T22:05:48.586Z,89.29
2018-10-17T22:08:16.024Z,88.58
2018-10-17T22:10:43.383Z,88.12
2018-10-17T22:13:10.739Z,87.96
2018-10-17T22:15:41.254Z,87.27
2018-10-17T22:18:08.641Z,86.68
2018-10-17T22:20:36.017Z,86.72
2018-10-17T22:23:03.374Z,87.79
2018-10-17T22:25:30.814Z,88.21
2018-10-17T22:27:58.347Z,87.95
2018-10-17T22:30:25.741Z,87.79
2018-10-17T22:32:53.137Z,90.21
2018-10-17T22:35:20.458Z,89.74
2018-10-17T22:37:47.835Z,89.74
2018-10-17T22:40:15.193Z,89.65
2018-10-17T22:42:42.595Z,89.12
2018-10-17T22:45:09.919Z,89.23
2018-10-17T22:47:37.348Z,89.04
2018-10-17T22:50:06.099Z,88.94
2018-10-17T22:52:33.474Z,87.91
2018-10-17T22:55:00.866Z,88.49
2018-10-17T22:57:28.249Z,88.88
2018-10-17T22:59:55.644Z,88.51
2018-10-17T23:02:22.978Z,88.72
2018-10-17T23:04:50.339Z,87.64
2018-10-17T23:07:17.734Z,87.62
2018-10-17T23:09:45.113Z,87.84
2018-10-17T23:12:12.485Z,87.78
2018-10-17T23:14:39.795Z,87.67
2018-10-17T23:17:07.146Z,87.78
2018-10-17T23:19:34.517Z,87.14
2018-10-17T23:22:01.913Z,88.97
2018-10-17T23:24:29.304Z,89.63
2018-10-17T23:26:56.740Z,91.48
2018-10-17T23:29:24.145Z,90.94
2018-10-17T23:31:51.582Z,90.73
2018-10-17T23:34:18.959Z,89.57
2018-10-17T23:36:46.309Z,89.29
2018-10-17T23:39:13.634Z,91.04
2018-10-17T23:41:41.060Z,90.35
2018-10-17T23:44:08.676Z,90.60
2018-10-17T23:46:35.982Z,89.17
2018-10-17T23:49:03.482Z,88.75
2018-10-17T23:51:30.886Z,89.17
2018-10-17T23:53:58.270Z,88.08
2018-10-17T23:56:25.643Z,87.81
2018-10-17T23:58:53.013Z,87.00
